createdAt,value
2019-05-10T00:01:37.925Z,81.36
2019-05-10T00:15:11.795Z,81.57
2019-05-10T00:17:46.394Z,81.71
2019-05-10T00:20:20.589Z,81.73
2019-05-10T00:22:56.033Z,82.01
2019-05-10T00:25:31.041Z,82.27
2019-05-10T00:28:04.951Z,82.21
2019-05-10T00:41:23.686Z,82.63
2019-05-10T00:44:14.765Z,82.56
2019-05-10T00:46:48.858Z,82.79
2019-05-10T01:00:09.856Z,83.26
2019-05-10T01:02:58.050Z,83.14
2019-05-10T01:05:31.727Z,83.04
2019-05-10T01:08:05.587Z,83.12
2019-05-10T01:10:52.257Z,83.01
2019-05-10T01:13:29.406Z,82.84
2019-05-10T01:16:03.281Z,82.58
2019-05-10T01:18:37.405Z,82.74
2019-05-10T01:21:22.665Z,82.76
2019-05-10T01:24:15.005Z,82.84
2019-05-10T01:26:49.652Z,82.85
2019-05-10T01:29:35.053Z,82.81
2019-05-10T01:32:20.883Z,82.81
2019-05-10T01:34:59.900Z,82.74
2019-05-10T01:37:33.942Z,82.81
2019-05-10T01:40:18.607Z,83.04
2019-05-10T01:42:52.521Z,82.98
2019-05-10T01:45:26.382Z,83.03
2019-05-10T01:48:15.289Z,82.99
2019-05-10T01:51:14.042Z,83.11
2019-05-10T01:53:47.946Z,83.38
2019-05-10T01:56:21.577Z,83.50
2019-05-10T01:58:57.253Z,83.53
2019-05-10T02:01:31.729Z,83.67
2019-05-10T02:04:05.526Z,83.85
2019-05-10T02:06:39.319Z,83.67
2019-05-10T02:09:13.256Z,83.52
2019-05-10T02:11:47.538Z,83.23
2019-05-10T02:14:21.645Z,83.02
2019-05-10T02:16:55.743Z,83.03
2019-05-10T02:19:41.776Z,82.92
2019-05-10T02:22:43.230Z,82.55
2019-05-10T02:35:58.000Z,82.31
2019-05-10T02:38:56.848Z,82.49
2019-05-10T02:52:05.345Z,83.72
2019-05-10T03:05:52.045Z,86.46
2019-05-10T04:11:55.391Z,89.58
2019-05-10T04:30:33.494Z,89.80
2019-05-10T04:33:07.733Z,89.87
2019-05-10T04:35:53.082Z,89.96
2019-05-10T04:38:27.223Z,89.93
2019-05-10T04:41:01.506Z,89.93
2019-05-10T04:43:35.368Z,89.96
2019-05-10T04:59:45.053Z,89.73
2019-05-10T05:02:22.222Z,89.77
2019-05-10T05:04:55.326Z,89.86
2019-05-10T05:07:33.654Z,89.90
2019-05-10T05:10:18.671Z,89.94
2019-05-10T05:12:51.785Z,89.95
2019-05-10T05:15:25.163Z,89.95
2019-05-10T05:18:05.453Z,89.88
2019-05-10T05:20:42.555Z,89.90
2019-05-10T05:24:16.859Z,90.01
2019-05-10T05:26:47.651Z,90.04
2019-05-10T05:29:22.218Z,90.10
2019-05-10T05:32:00.962Z,90.21
2019-05-10T05:34:31.382Z,90.29
2019-05-10T05:37:04.681Z,90.31
2019-05-10T05:39:39.336Z,90.27
2019-05-10T05:42:12.736Z,90.20
2019-05-10T05:55:45.991Z,89.75
2019-05-10T07:08:57.073Z,87.49
2019-05-10T07:11:50.509Z,86.73
2019-05-10T07:14:27.152Z,86.79
2019-05-10T07:17:03.032Z,86.67
2019-05-10T07:19:41.594Z,86.33
2019-05-10T07:22:26.284Z,85.73
2019-05-10T07:24:57.148Z,85.47
2019-05-10T07:27:30.125Z,85.39
2019-05-10T07:30:03.152Z,85.06
2019-05-10T07:32:35.395Z,84.96
2019-05-10T07:35:08.914Z,85.13
2019-05-10T07:37:40.921Z,84.29
2019-05-10T07:40:15.031Z,83.45
2019-05-10T07:43:24.703Z,81.75
2019-05-10T07:46:09.015Z,81.13
2019-05-10T07:48:47.318Z,80.70
2019-05-10T07:51:39.279Z,79.33
2019-05-10T07:54:12.846Z,77.42
2019-05-10T07:56:47.928Z,77.73
2019-05-10T07:59:27.971Z,76.66
2019-05-10T08:01:57.759Z,77.02
2019-05-10T08:04:33.799Z,77.52
2019-05-10T08:07:10.514Z,77.56
2019-05-10T08:09:46.763Z,77.79
2019-05-10T08:12:41.539Z,77.87
2019-05-10T08:15:13.313Z,76.88
2019-05-10T08:17:50.499Z,74.91
2019-05-10T08:20:41.080Z,72.41
2019-05-10T08:22:56.435Z,72.16
2019-05-10T08:25:36.392Z,74.13
2019-05-10T08:28:06.112Z,77.70
2019-05-10T08:30:53.640Z,80.31
2019-05-10T08:33:32.805Z,82.07
2019-05-10T09:23:29.576Z,87.30
2019-05-10T09:26:10.108Z,87.08
2019-05-10T09:28:37.517Z,87.31
2019-05-10T10:09:07.281Z,84.35
2019-05-10T10:11:40.189Z,85.18
2019-05-10T10:14:14.248Z,85.25
2019-05-10T10:16:57.810Z,85.82
2019-05-10T11:12:21.078Z,77.96
2019-05-10T11:14:50.708Z,78.12
2019-05-10T15:39:49.345Z,64.65
2019-05-10T15:42:22.190Z,64.80
2019-05-10T15:45:05.219Z,64.17
2019-05-10T15:47:50.142Z,62.54
2019-05-10T15:50:14.712Z,61.77
2019-05-10T15:52:50.964Z,62.59
2019-05-10T15:55:27.012Z,63.85
2019-05-10T15:58:00.223Z,63.98
2019-05-10T16:00:53.810Z,64.00
2019-05-10T16:38:03.871Z,64.02
2019-05-10T16:40:37.557Z,65.27
2019-05-10T16:43:13.519Z,64.23
2019-05-10T16:45:44.421Z,65.50
2019-05-10T16:48:17.664Z,63.02
2019-05-10T17:02:15.221Z,60.02
2019-05-10T17:04:55.978Z,58.38
2019-05-10T17:07:29.040Z,57.75
2019-05-10T17:10:13.346Z,60.61
2019-05-10T17:12:47.363Z,59.75
2019-05-10T17:15:19.309Z,60.50
2019-05-10T17:17:53.436Z,61.87
2019-05-10T17:20:27.002Z,61.05
2019-05-10T17:34:05.632Z,62.32
2019-05-10T17:48:57.728Z,60.33
2019-05-10T17:51:39.967Z,61.41
2019-05-10T17:54:13.519Z,62.36
2019-05-10T17:56:47.099Z,63.66
2019-05-10T17:59:21.013Z,63.04
2019-05-10T18:01:55.256Z,63.66
2019-05-10T18:04:28.752Z,63.48
2019-05-10T18:07:01.977Z,64.00
2019-05-10T18:09:44.938Z,63.09
2019-05-10T18:12:30.290Z,63.92
2019-05-10T18:15:04.934Z,63.21
2019-05-10T18:17:38.784Z,64.45
2019-05-10T18:20:12.661Z,65.32
2019-05-10T18:22:45.854Z,66.58
2019-05-10T18:25:22.107Z,65.71
2019-05-10T18:27:55.286Z,66.20
2019-05-10T18:30:29.092Z,66.93
2019-05-10T18:33:06.675Z,66.21
2019-05-10T18:35:53.026Z,68.25
2019-05-10T18:38:24.592Z,68.82
2019-05-10T18:41:10.087Z,69.20
2019-05-10T18:43:42.907Z,69.94
2019-05-10T18:46:28.343Z,70.37
2019-05-10T18:49:01.932Z,70.62
2019-05-10T18:51:35.237Z,70.01
2019-05-10T18:54:08.853Z,69.80
2019-05-10T18:56:42.361Z,70.65
2019-05-10T18:59:16.949Z,71.29
2019-05-10T21:41:58.617Z,80.05
2019-05-10T21:44:33.391Z,80.52
2019-05-10T21:47:18.895Z,81.17
2019-05-10T21:49:53.679Z,81.56
2019-05-10T21:52:28.102Z,82.20
2019-05-10T21:55:03.433Z,82.38
2019-05-10T21:57:56.491Z,82.41
2019-05-10T22:00:45.301Z,81.92
2019-05-10T22:03:20.299Z,81.33
2019-05-10T22:05:59.260Z,81.43
2019-05-10T22:08:49.136Z,81.75
2019-05-10T22:11:27.047Z,81.52
2019-05-10T22:14:05.382Z,81.32
2019-05-10T22:16:42.066Z,81.47
2019-05-10T22:19:14.834Z,81.56
2019-05-10T22:21:48.927Z,81.30
2019-05-10T22:24:24.722Z,81.28
2019-05-10T22:27:03.733Z,81.24
2019-05-10T22:29:37.828Z,81.48
2019-05-10T22:32:12.159Z,81.78
2019-05-10T22:34:46.594Z,82.04
2019-05-10T22:37:20.831Z,82.16
2019-05-10T22:40:03.779Z,82.38
2019-05-10T22:42:46.078Z,82.53
2019-05-10T22:45:22.354Z,82.45
2019-05-10T22:47:57.917Z,82.28
2019-05-10T22:50:31.853Z,82.00
2019-05-10T22:53:08.072Z,81.43
2019-05-10T22:55:42.790Z,81.58
2019-05-10T22:58:38.902Z,81.77
2019-05-10T23:01:14.482Z,81.59
2019-05-10T23:03:49.227Z,81.49
2019-05-10T23:06:23.354Z,81.81
2019-05-10T23:08:57.394Z,82.31
2019-05-10T23:11:42.863Z,83.21
2019-05-10T23:14:31.327Z,83.23
2019-05-10T23:17:04.691Z,83.17
2019-05-10T23:19:42.383Z,83.02
2019-05-10T23:22:16.312Z,82.98
2019-05-10T23:24:50.242Z,83.07
2019-05-10T23:27:24.710Z,83.36
2019-05-10T23:30:07.324Z,83.72
2019-05-10T23:32:50.280Z,83.76
2019-05-10T23:35:33.402Z,83.91
2019-05-10T23:38:07.605Z,84.11
2019-05-10T23:40:42.008Z,84.29
2019-05-10T23:43:16.309Z,84.34
2019-05-10T23:45:49.972Z,84.27
2019-05-10T23:48:23.936Z,84.36
2019-05-10T23:51:07.015Z,84.53
2019-05-10T23:53:49.970Z,84.67
2019-05-10T23:56:23.631Z,84.63
2019-05-10T23:58:57.608Z,84.64
